sensor_id;sensor_type;location;lat;lon;timestamp;pressure;altitude;pressure_sealevel;temperature;humidity
49999;BME280;68071;45.062;7.356;2023-04-27T00:01:32;95103.59;;;8.82;62.80
49999;BME280;68071;45.062;7.356;2023-04-27T00:04:37;95103.75;;;9.46;58.95
49999;BME280;68071;45.062;7.356;2023-04-27T00:07:41;95104.22;;;9.33;59.55
49999;BME280;68071;45.062;7.356;2023-04-27T00:10:45;95114.81;;;9.42;59.40
49999;BME280;68071;45.062;7.356;2023-04-27T00:13:49;95111.75;;;9.11;61.33
49999;BME280;68071;45.062;7.356;2023-04-27T00:16:54;95102.31;;;9.16;60.93
49999;BME280;68071;45.062;7.356;2023-04-27T00:19:58;95110.94;;;9.18;60.77
49999;BME280;68071;45.062;7.356;2023-04-27T00:23:03;95116.09;;;9.12;60.94
49999;BME280;68071;45.062;7.356;2023-04-27T00:26:06;95107.47;;;8.96;61.86
49999;BME280;68071;45.062;7.356;2023-04-27T00:29:10;95103.91;;;9.02;60.89
49999;BME280;68071;45.062;7.356;2023-04-27T00:32:16;95100.75;;;9.15;59.74
49999;BME280;68071;45.062;7.356;2023-04-27T00:35:19;95102.38;;;8.87;62.03
49999;BME280;68071;45.062;7.356;2023-04-27T00:38:24;95089.50;;;9.54;57.76
49999;BME280;68071;45.062;7.356;2023-04-27T00:41:28;95097.31;;;9.67;54.33
49999;BME280;68071;45.062;7.356;2023-04-27T00:44:32;95099.38;;;10.61;48.72
49999;BME280;68071;45.062;7.356;2023-04-27T00:47:36;95090.75;;;10.94;46.50
49999;BME280;68071;45.062;7.356;2023-04-27T00:50:40;95089.91;;;9.49;56.09
49999;BME280;68071;45.062;7.356;2023-04-27T00:53:44;95096.16;;;8.36;64.52
49999;BME280;68071;45.062;7.356;2023-04-27T00:56:49;95087.91;;;8.28;63.79
49999;BME280;68071;45.062;7.356;2023-04-27T00:59:54;95086.72;;;8.55;59.81
49999;BME280;68071;45.062;7.356;2023-04-27T01:02:58;95080.34;;;8.80;58.35
49999;BME280;68071;45.062;7.356;2023-04-27T01:06:03;95080.94;;;9.31;54.23
49999;BME280;68071;45.062;7.356;2023-04-27T01:09:06;95079.16;;;9.73;51.20
49999;BME280;68071;45.062;7.356;2023-04-27T01:12:11;95080.97;;;9.27;53.82
49999;BME280;68071;45.062;7.356;2023-04-27T01:15:15;95078.97;;;9.35;53.60
49999;BME280;68071;45.062;7.356;2023-04-27T01:18:19;95078.28;;;10.36;48.43
49999;BME280;68071;45.062;7.356;2023-04-27T01:21:24;95076.41;;;10.22;49.43
49999;BME280;68071;45.062;7.356;2023-04-27T01:24:28;95070.84;;;10.26;48.05
49999;BME280;68071;45.062;7.356;2023-04-27T01:27:32;95084.28;;;10.27;48.14
49999;BME280;68071;45.062;7.356;2023-04-27T01:30:37;95084.22;;;9.82;51.30
49999;BME280;68071;45.062;7.356;2023-04-27T01:33:41;95076.97;;;9.39;52.56
49999;BME280;68071;45.062;7.356;2023-04-27T01:36:45;95092.19;;;8.80;55.44
49999;BME280;68071;45.062;7.356;2023-04-27T01:39:49;95082.38;;;8.65;55.96
49999;BME280;68071;45.062;7.356;2023-04-27T01:42:53;95081.19;;;8.66;55.66
49999;BME280;68071;45.062;7.356;2023-04-27T01:46:11;95076.41;;;9.69;50.31
49999;BME280;68071;45.062;7.356;2023-04-27T01:49:15;95070.72;;;9.31;52.27
49999;BME280;68071;45.062;7.356;2023-04-27T01:52:20;95077.59;;;8.87;55.96
49999;BME280;68071;45.062;7.356;2023-04-27T01:55:24;95076.88;;;8.54;57.44
49999;BME280;68071;45.062;7.356;2023-04-27T01:58:28;95074.47;;;8.74;56.00
49999;BME280;68071;45.062;7.356;2023-04-27T02:01:32;95083.50;;;8.82;55.44
49999;BME280;68071;45.062;7.356;2023-04-27T02:04:36;95078.84;;;8.39;58.85
49999;BME280;68071;45.062;7.356;2023-04-27T02:07:40;95076.38;;;8.99;54.47
49999;BME280;68071;45.062;7.356;2023-04-27T02:10:44;95079.09;;;9.02;54.09
49999;BME280;68071;45.062;7.356;2023-04-27T02:13:48;95086.25;;;8.85;55.77
49999;BME280;68071;45.062;7.356;2023-04-27T02:16:52;95084.66;;;8.95;55.03
49999;BME280;68071;45.062;7.356;2023-04-27T02:19:56;95083.59;;;8.27;59.51
49999;BME280;68071;45.062;7.356;2023-04-27T02:23:00;95083.59;;;8.09;59.44
49999;BME280;68071;45.062;7.356;2023-04-27T02:26:05;95088.31;;;8.56;56.97
49999;BME280;68071;45.062;7.356;2023-04-27T02:29:08;95089.84;;;8.53;57.29
49999;BME280;68071;45.062;7.356;2023-04-27T02:32:13;95093.00;;;8.30;58.79
49999;BME280;68071;45.062;7.356;2023-04-27T02:35:17;95087.09;;;8.42;58.44
49999;BME280;68071;45.062;7.356;2023-04-27T02:38:21;95083.97;;;8.29;60.03
49999;BME280;68071;45.062;7.356;2023-04-27T02:41:29;95087.09;;;8.39;59.40
49999;BME280;68071;45.062;7.356;2023-04-27T02:44:33;95092.22;;;8.62;58.84
49999;BME280;68071;45.062;7.356;2023-04-27T02:47:37;95093.38;;;8.68;58.81
49999;BME280;68071;45.062;7.356;2023-04-27T02:50:42;95098.94;;;8.54;60.19
49999;BME280;68071;45.062;7.356;2023-04-27T02:53:46;95100.09;;;8.27;62.10
49999;BME280;68071;45.062;7.356;2023-04-27T02:56:51;95106.00;;;8.66;59.43
49999;BME280;68071;45.062;7.356;2023-04-27T02:59:54;95106.31;;;8.97;57.92
49999;BME280;68071;45.062;7.356;2023-04-27T03:02:58;95118.50;;;8.99;57.77
49999;BME280;68071;45.062;7.356;2023-04-27T03:06:02;95108.75;;;8.37;61.38
49999;BME280;68071;45.062;7.356;2023-04-27T03:09:07;95106.41;;;7.99;63.62
49999;BME280;68071;45.062;7.356;2023-04-27T03:12:13;95111.53;;;8.55;59.90
49999;BME280;68071;45.062;7.356;2023-04-27T03:15:17;95112.28;;;8.37;60.31
49999;BME280;68071;45.062;7.356;2023-04-27T03:18:21;95113.88;;;8.49;60.00
49999;BME280;68071;45.062;7.356;2023-04-27T03:21:26;95111.47;;;8.47;59.55
49999;BME280;68071;45.062;7.356;2023-04-27T03:24:31;95121.34;;;8.52;58.85
49999;BME280;68071;45.062;7.356;2023-04-27T03:27:36;95115.81;;;8.01;62.75
49999;BME280;68071;45.062;7.356;2023-04-27T03:30:40;95112.28;;;8.05;61.45
49999;BME280;68071;45.062;7.356;2023-04-27T03:33:44;95120.16;;;8.02;61.61
49999;BME280;68071;45.062;7.356;2023-04-27T03:36:48;95119.75;;;7.93;61.75
49999;BME280;68071;45.062;7.356;2023-04-27T03:39:53;95126.03;;;7.97;61.75
49999;BME280;68071;45.062;7.356;2023-04-27T03:42:57;95121.31;;;8.70;56.40
49999;BME280;68071;45.062;7.356;2023-04-27T03:46:01;95121.72;;;8.40;58.03
49999;BME280;68071;45.062;7.356;2023-04-27T03:49:05;95132.34;;;8.16;59.64
49999;BME280;68071;45.062;7.356;2023-04-27T03:52:10;95130.00;;;8.11;59.82
49999;BME280;68071;45.062;7.356;2023-04-27T03:55:14;95128.44;;;8.10;60.05
49999;BME280;68071;45.062;7.356;2023-04-27T03:58:19;95131.56;;;8.08;60.42
49999;BME280;68071;45.062;7.356;2023-04-27T04:01:50;95139.81;;;7.90;61.99
49999;BME280;68071;45.062;7.356;2023-04-27T04:04:54;95131.13;;;7.77;62.50
49999;BME280;68071;45.062;7.356;2023-04-27T04:07:58;95142.56;;;8.41;58.61
49999;BME280;68071;45.062;7.356;2023-04-27T04:11:04;95142.16;;;8.42;59.32
49999;BME280;68071;45.062;7.356;2023-04-27T04:14:08;95148.47;;;8.03;61.83
49999;BME280;68071;45.062;7.356;2023-04-27T04:17:12;95151.63;;;8.12;62.02
49999;BME280;68071;45.062;7.356;2023-04-27T04:20:17;95150.41;;;7.88;64.40
49999;BME280;68071;45.062;7.356;2023-04-27T04:23:21;95148.06;;;7.94;63.50
49999;BME280;68071;45.062;7.356;2023-04-27T04:26:27;95155.53;;;8.11;62.12
49999;BME280;68071;45.062;7.356;2023-04-27T04:29:31;95152.75;;;7.71;64.88
49999;BME280;68071;45.062;7.356;2023-04-27T04:32:36;95162.16;;;9.22;55.94
49999;BME280;68071;45.062;7.356;2023-04-27T04:35:43;95171.66;;;8.09;63.80
49999;BME280;68071;45.062;7.356;2023-04-27T04:38:47;95169.63;;;7.63;66.17
49999;BME280;68071;45.062;7.356;2023-04-27T04:41:52;95170.03;;;7.76;65.12
49999;BME280;68071;45.062;7.356;2023-04-27T04:44:57;95179.16;;;8.12;63.46
49999;BME280;68071;45.062;7.356;2023-04-27T04:48:01;95182.75;;;8.49;61.23
49999;BME280;68071;45.062;7.356;2023-04-27T04:51:08;95178.72;;;7.96;65.45
49999;BME280;68071;45.062;7.356;2023-04-27T04:54:12;95178.72;;;7.92;65.73
49999;BME280;68071;45.062;7.356;2023-04-27T04:57:17;95186.97;;;7.88;66.45
49999;BME280;68071;45.062;7.356;2023-04-27T05:00:21;95191.69;;;7.95;66.44
49999;BME280;68071;45.062;7.356;2023-04-27T05:03:26;95189.34;;;8.08;66.79
49999;BME280;68071;45.062;7.356;2023-04-27T05:06:30;95197.22;;;8.17;67.06
49999;BME280;68071;45.062;7.356;2023-04-27T05:09:34;95205.88;;;8.23;65.67
49999;BME280;68071;45.062;7.356;2023-04-27T05:12:38;95204.78;;;8.49;65.66
49999;BME280;68071;45.062;7.356;2023-04-27T05:15:42;95208.31;;;8.57;65.56
49999;BME280;68071;45.062;7.356;2023-04-27T05:18:46;95208.72;;;8.66;66.67
49999;BME280;68071;45.062;7.356;2023-04-27T05:21:50;95220.53;;;8.77;68.09
49999;BME280;68071;45.062;7.356;2023-04-27T05:24:54;95229.56;;;8.63;66.88
49999;BME280;68071;45.062;7.356;2023-04-27T05:27:59;95229.16;;;8.80;66.75
49999;BME280;68071;45.062;7.356;2023-04-27T05:31:04;95241.38;;;8.97;65.58
49999;BME280;68071;45.062;7.356;2023-04-27T05:34:09;95237.03;;;9.06;67.98
49999;BME280;68071;45.062;7.356;2023-04-27T05:37:12;95234.22;;;9.35;67.95
49999;BME280;68071;45.062;7.356;2023-04-27T05:40:16;95238.94;;;9.35;69.78
49999;BME280;68071;45.062;7.356;2023-04-27T05:43:20;95241.75;;;9.20;74.75
49999;BME280;68071;45.062;7.356;2023-04-27T05:46:24;95241.69;;;9.38;71.04
49999;BME280;68071;45.062;7.356;2023-04-27T05:49:28;95242.44;;;9.46;71.53
49999;BME280;68071;45.062;7.356;2023-04-27T05:52:32;95250.34;;;9.41;74.72
49999;BME280;68071;45.062;7.356;2023-04-27T05:55:36;95264.75;;;9.95;64.07
49999;BME280;68071;45.062;7.356;2023-04-27T05:58:42;95260.69;;;10.22;68.08
49999;BME280;68071;45.062;7.356;2023-04-27T06:01:46;95264.97;;;10.30;62.94
49999;BME280;68071;45.062;7.356;2023-04-27T06:04:51;95266.50;;;10.46;59.57
49999;BME280;68071;45.062;7.356;2023-04-27T06:07:55;95264.09;;;10.55;59.06
49999;BME280;68071;45.062;7.356;2023-04-27T06:10:59;95275.91;;;10.59;56.97
49999;BME280;68071;45.062;7.356;2023-04-27T06:14:03;95272.69;;;10.68;57.88
49999;BME280;68071;45.062;7.356;2023-04-27T06:17:07;95282.06;;;10.81;56.19
49999;BME280;68071;45.062;7.356;2023-04-27T06:20:11;95280.38;;;10.95;55.11
49999;BME280;68071;45.062;7.356;2023-04-27T06:23:15;95285.31;;;11.22;58.36
49999;BME280;68071;45.062;7.356;2023-04-27T06:26:19;95292.41;;;11.19;58.40
49999;BME280;68071;45.062;7.356;2023-04-27T06:29:23;95289.00;;;11.00;58.85
49999;BME280;68071;45.062;7.356;2023-04-27T06:32:27;95294.22;;;10.91;57.76
49999;BME280;68071;45.062;7.356;2023-04-27T06:35:31;95291.41;;;10.98;58.39
49999;BME280;68071;45.062;7.356;2023-04-27T06:38:35;95295.56;;;11.25;57.34
49999;BME280;68071;45.062;7.356;2023-04-27T06:41:38;95286.06;;;11.22;56.42
49999;BME280;68071;45.062;7.356;2023-04-27T06:44:54;95287.16;;;11.32;55.55
49999;BME280;68071;45.062;7.356;2023-04-27T06:47:58;95291.56;;;11.29;57.42
49999;BME280;68071;45.062;7.356;2023-04-27T06:51:02;95294.44;;;11.57;56.00
49999;BME280;68071;45.062;7.356;2023-04-27T06:54:07;95280.44;;;11.71;53.55
49999;BME280;68071;45.062;7.356;2023-04-27T06:57:11;95288.31;;;12.11;53.45
49999;BME280;68071;45.062;7.356;2023-04-27T07:00:15;95295.31;;;12.54;52.58
49999;BME280;68071;45.062;7.356;2023-04-27T07:03:20;95290.66;;;12.47;51.77
49999;BME280;68071;45.062;7.356;2023-04-27T07:06:25;95294.06;;;12.28;54.27
49999;BME280;68071;45.062;7.356;2023-04-27T07:09:29;95297.19;;;12.30;53.78
49999;BME280;68071;45.062;7.356;2023-04-27T07:12:34;95289.81;;;12.78;49.68
49999;BME280;68071;45.062;7.356;2023-04-27T07:15:38;95295.97;;;13.16;48.83
49999;BME280;68071;45.062;7.356;2023-04-27T07:18:43;95305.19;;;13.10;49.26
49999;BME280;68071;45.062;7.356;2023-04-27T07:21:47;95309.22;;;12.78;51.48
49999;BME280;68071;45.062;7.356;2023-04-27T07:24:51;95307.91;;;12.86;50.58
49999;BME280;68071;45.062;7.356;2023-04-27T07:27:55;95307.75;;;12.69;52.05
49999;BME280;68071;45.062;7.356;2023-04-27T07:30:59;95309.06;;;12.89;50.79
49999;BME280;68071;45.062;7.356;2023-04-27T07:34:04;95300.66;;;13.67;48.04
49999;BME280;68071;45.062;7.356;2023-04-27T07:37:08;95309.44;;;13.66;46.91
49999;BME280;68071;45.062;7.356;2023-04-27T07:40:12;95307.72;;;13.72;44.88
49999;BME280;68071;45.062;7.356;2023-04-27T07:43:20;95303.13;;;13.41;46.50
49999;BME280;68071;45.062;7.356;2023-04-27T07:46:26;95295.59;;;13.14;48.60
49999;BME280;68071;45.062;7.356;2023-04-27T07:49:32;95285.50;;;13.72;48.65
49999;BME280;68071;45.062;7.356;2023-04-27T07:52:38;95295.19;;;13.64;46.16
49999;BME280;68071;45.062;7.356;2023-04-27T07:55:42;95297.13;;;13.43;45.98
49999;BME280;68071;45.062;7.356;2023-04-27T07:58:49;95289.03;;;13.96;46.29
49999;BME280;68071;45.062;7.356;2023-04-27T08:01:53;95295.31;;;14.57;47.73
49999;BME280;68071;45.062;7.356;2023-04-27T08:04:57;95302.28;;;15.02;45.04
49999;BME280;68071;45.062;7.356;2023-04-27T08:08:01;95306.28;;;15.01;45.79
49999;BME280;68071;45.062;7.356;2023-04-27T08:11:08;95304.72;;;15.33;45.19
49999;BME280;68071;45.062;7.356;2023-04-27T08:14:12;95304.00;;;14.22;44.83
49999;BME280;68071;45.062;7.356;2023-04-27T08:17:17;95312.97;;;14.67;45.43
49999;BME280;68071;45.062;7.356;2023-04-27T08:20:21;95310.03;;;14.17;47.36
49999;BME280;68071;45.062;7.356;2023-04-27T08:23:27;95311.66;;;14.35;46.82
49999;BME280;68071;45.062;7.356;2023-04-27T08:26:32;95315.13;;;14.79;45.07
49999;BME280;68071;45.062;7.356;2023-04-27T08:29:38;95317.72;;;14.70;46.00
49999;BME280;68071;45.062;7.356;2023-04-27T08:32:42;95313.34;;;14.69;48.96
49999;BME280;68071;45.062;7.356;2023-04-27T08:35:46;95315.22;;;14.56;46.33
49999;BME280;68071;45.062;7.356;2023-04-27T08:38:51;95317.56;;;14.77;48.06
49999;BME280;68071;45.062;7.356;2023-04-27T08:41:55;95313.41;;;14.65;46.44
49999;BME280;68071;45.062;7.356;2023-04-27T08:44:59;95323.91;;;14.58;46.72
49999;BME280;68071;45.062;7.356;2023-04-27T08:48:03;95323.72;;;14.69;47.12
49999;BME280;68071;45.062;7.356;2023-04-27T08:51:08;95318.31;;;14.78;46.45
49999;BME280;68071;45.062;7.356;2023-04-27T08:54:14;95309.38;;;14.87;46.83
49999;BME280;68071;45.062;7.356;2023-04-27T08:57:18;95309.63;;;14.76;46.00
49999;BME280;68071;45.062;7.356;2023-04-27T09:00:23;95311.50;;;14.99;46.13
49999;BME280;68071;45.062;7.356;2023-04-27T09:03:28;95316.69;;;14.80;49.13
49999;BME280;68071;45.062;7.356;2023-04-27T09:06:33;95310.19;;;14.87;45.17
49999;BME280;68071;45.062;7.356;2023-04-27T09:09:37;95315.00;;;15.03;46.16
49999;BME280;68071;45.062;7.356;2023-04-27T09:12:42;95306.97;;;15.05;44.22
49999;BME280;68071;45.062;7.356;2023-04-27T09:15:56;95297.06;;;15.04;47.49
49999;BME280;68071;45.062;7.356;2023-04-27T09:19:00;95302.72;;;15.17;46.27
49999;BME280;68071;45.062;7.356;2023-04-27T09:22:08;95301.13;;;15.66;44.73
49999;BME280;68071;45.062;7.356;2023-04-27T09:25:31;95293.53;;;15.66;44.14
49999;BME280;68071;45.062;7.356;2023-04-27T09:28:39;95290.16;;;15.58;44.09
49999;BME280;68071;45.062;7.356;2023-04-27T09:31:50;95299.03;;;15.53;45.60
49999;BME280;68071;45.062;7.356;2023-04-27T09:34:54;95301.84;;;15.53;43.31
49999;BME280;68071;45.062;7.356;2023-04-27T09:37:59;95302.38;;;15.48;41.74
49999;BME280;68071;45.062;7.356;2023-04-27T09:41:03;95295.78;;;15.88;45.71
49999;BME280;68071;45.062;7.356;2023-04-27T09:44:08;95291.34;;;15.74;44.48
49999;BME280;68071;45.062;7.356;2023-04-27T09:47:13;95291.25;;;15.94;44.27
49999;BME280;68071;45.062;7.356;2023-04-27T09:50:18;95290.69;;;15.53;45.09
49999;BME280;68071;45.062;7.356;2023-04-27T09:53:29;95289.78;;;15.73;45.17
49999;BME280;68071;45.062;7.356;2023-04-27T09:56:51;95283.56;;;15.82;45.80
49999;BME280;68071;45.062;7.356;2023-04-27T10:00:15;95277.22;;;15.98;45.72
49999;BME280;68071;45.062;7.356;2023-04-27T10:03:39;95279.50;;;16.16;45.65
49999;BME280;68071;45.062;7.356;2023-04-27T10:07:04;95282.16;;;16.49;44.83
49999;BME280;68071;45.062;7.356;2023-04-27T10:10:15;95273.78;;;16.75;44.08
49999;BME280;68071;45.062;7.356;2023-04-27T10:13:24;95270.53;;;16.63;43.57
49999;BME280;68071;45.062;7.356;2023-04-27T10:16:51;95271.78;;;16.62;43.10
49999;BME280;68071;45.062;7.356;2023-04-27T10:20:00;95283.72;;;16.50;45.04
49999;BME280;68071;45.062;7.356;2023-04-27T10:23:04;95271.06;;;16.45;43.70
49999;BME280;68071;45.062;7.356;2023-04-27T10:26:08;95274.34;;;17.21;43.01
49999;BME280;68071;45.062;7.356;2023-04-27T10:29:14;95264.84;;;16.93;44.33
49999;BME280;68071;45.062;7.356;2023-04-27T10:32:23;95267.75;;;17.28;42.86
49999;BME280;68071;45.062;7.356;2023-04-27T10:35:35;95270.13;;;17.30;43.95
49999;BME280;68071;45.062;7.356;2023-04-27T10:38:39;95260.94;;;17.16;45.70
49999;BME280;68071;45.062;7.356;2023-04-27T10:41:51;95267.28;;;17.43;42.40
49999;BME280;68071;45.062;7.356;2023-04-27T10:44:56;95258.75;;;17.11;44.72
49999;BME280;68071;45.062;7.356;2023-04-27T10:48:01;95254.88;;;17.31;42.51
49999;BME280;68071;45.062;7.356;2023-04-27T10:51:05;95247.59;;;17.46;43.40
49999;BME280;68071;45.062;7.356;2023-04-27T10:54:10;95257.25;;;17.19;42.40
49999;BME280;68071;45.062;7.356;2023-04-27T10:57:15;95243.22;;;18.16;42.23
49999;BME280;68071;45.062;7.356;2023-04-27T11:00:22;95247.25;;;18.14;42.23
49999;BME280;68071;45.062;7.356;2023-04-27T11:03:26;95245.94;;;18.28;41.20
49999;BME280;68071;45.062;7.356;2023-04-27T11:06:31;95253.94;;;17.60;45.42
49999;BME280;68071;45.062;7.356;2023-04-27T11:09:38;95259.47;;;18.62;39.62
49999;BME280;68071;45.062;7.356;2023-04-27T11:12:42;95252.66;;;18.09;42.86
49999;BME280;68071;45.062;7.356;2023-04-27T11:19:03;95248.41;;;17.34;40.93
49999;BME280;68071;45.062;7.356;2023-04-27T11:22:08;95249.38;;;17.53;40.93
49999;BME280;68071;45.062;7.356;2023-04-27T11:25:12;95234.72;;;17.84;42.57
49999;BME280;68071;45.062;7.356;2023-04-27T11:28:17;95222.88;;;17.80;42.62
49999;BME280;68071;45.062;7.356;2023-04-27T11:31:22;95215.22;;;17.93;42.23
49999;BME280;68071;45.062;7.356;2023-04-27T11:34:26;95215.44;;;17.99;42.36
49999;BME280;68071;45.062;7.356;2023-04-27T11:37:30;95211.81;;;17.54;43.25
49999;BME280;68071;45.062;7.356;2023-04-27T11:40:35;95209.56;;;17.84;42.46
49999;BME280;68071;45.062;7.356;2023-04-27T11:43:43;95214.59;;;17.54;42.21
49999;BME280;68071;45.062;7.356;2023-04-27T11:46:51;95225.69;;;17.45;41.63
49999;BME280;68071;45.062;7.356;2023-04-27T11:49:58;95220.22;;;17.41;41.92
49999;BME280;68071;45.062;7.356;2023-04-27T11:53:02;95220.53;;;17.56;42.55
49999;BME280;68071;45.062;7.356;2023-04-27T11:56:09;95224.63;;;17.64;42.34
49999;BME280;68071;45.062;7.356;2023-04-27T11:59:21;95227.41;;;18.22;41.21
49999;BME280;68071;45.062;7.356;2023-04-27T12:02:31;95228.75;;;17.95;42.20
49999;BME280;68071;45.062;7.356;2023-04-27T12:05:35;95230.53;;;17.89;41.18
49999;BME280;68071;45.062;7.356;2023-04-27T12:08:39;95227.66;;;18.14;41.15
49999;BME280;68071;45.062;7.356;2023-04-27T12:11:43;95231.47;;;18.30;39.83
49999;BME280;68071;45.062;7.356;2023-04-27T12:14:48;95222.94;;;18.65;42.70
49999;BME280;68071;45.062;7.356;2023-04-27T12:17:52;95213.91;;;17.63;41.36
49999;BME280;68071;45.062;7.356;2023-04-27T12:20:56;95227.31;;;17.68;41.28
49999;BME280;68071;45.062;7.356;2023-04-27T12:24:01;95228.88;;;17.91;41.11
49999;BME280;68071;45.062;7.356;2023-04-27T12:27:05;95233.69;;;18.35;42.75
49999;BME280;68071;45.062;7.356;2023-04-27T12:30:10;95223.16;;;19.21;39.89
49999;BME280;68071;45.062;7.356;2023-04-27T12:33:14;95221.91;;;18.72;40.66
49999;BME280;68071;45.062;7.356;2023-04-27T12:36:19;95221.06;;;18.08;41.46
49999;BME280;68071;45.062;7.356;2023-04-27T12:39:23;95219.94;;;18.50;42.05
49999;BME280;68071;45.062;7.356;2023-04-27T12:42:28;95223.28;;;18.13;41.57
49999;BME280;68071;45.062;7.356;2023-04-27T12:45:31;95221.28;;;18.14;41.76
49999;BME280;68071;45.062;7.356;2023-04-27T12:48:35;95226.41;;;18.16;40.77
49999;BME280;68071;45.062;7.356;2023-04-27T12:51:40;95215.88;;;18.20;42.96
49999;BME280;68071;45.062;7.356;2023-04-27T12:54:44;95220.50;;;18.13;42.82
49999;BME280;68071;45.062;7.356;2023-04-27T12:57:49;95214.69;;;18.30;41.05
49999;BME280;68071;45.062;7.356;2023-04-27T13:00:55;95203.50;;;18.30;42.98
49999;BME280;68071;45.062;7.356;2023-04-27T13:04:02;95214.25;;;18.32;43.16
49999;BME280;68071;45.062;7.356;2023-04-27T13:07:07;95209.81;;;18.84;40.80
49999;BME280;68071;45.062;7.356;2023-04-27T13:10:11;95214.25;;;18.32;42.32
49999;BME280;68071;45.062;7.356;2023-04-27T13:13:15;95211.44;;;17.87;41.67
49999;BME280;68071;45.062;7.356;2023-04-27T13:16:19;95203.47;;;18.21;44.93
49999;BME280;68071;45.062;7.356;2023-04-27T13:19:25;95201.94;;;18.29;41.51
49999;BME280;68071;45.062;7.356;2023-04-27T13:22:29;95209.34;;;18.54;42.54
49999;BME280;68071;45.062;7.356;2023-04-27T13:25:33;95205.53;;;18.61;41.02
49999;BME280;68071;45.062;7.356;2023-04-27T13:28:37;95204.97;;;18.75;43.00
49999;BME280;68071;45.062;7.356;2023-04-27T13:31:41;95204.50;;;19.27;41.65
49999;BME280;68071;45.062;7.356;2023-04-27T13:34:45;95198.13;;;20.20;38.81
49999;BME280;68071;45.062;7.356;2023-04-27T13:37:49;95191.09;;;20.15;40.50
49999;BME280;68071;45.062;7.356;2023-04-27T13:40:56;95189.41;;;19.62;40.67
49999;BME280;68071;45.062;7.356;2023-04-27T13:44:00;95187.84;;;19.24;40.64
49999;BME280;68071;45.062;7.356;2023-04-27T13:47:04;95187.84;;;19.52;40.64
49999;BME280;68071;45.062;7.356;2023-04-27T13:50:09;95189.25;;;19.84;40.56
49999;BME280;68071;45.062;7.356;2023-04-27T13:53:13;95183.19;;;19.86;40.46
49999;BME280;68071;45.062;7.356;2023-04-27T13:56:19;95189.56;;;19.49;39.74
49999;BME280;68071;45.062;7.356;2023-04-27T13:59:23;95176.00;;;19.57;41.67
49999;BME280;68071;45.062;7.356;2023-04-27T14:02:28;95182.72;;;20.06;40.52
49999;BME280;68071;45.062;7.356;2023-04-27T14:05:33;95174.16;;;20.00;39.36
49999;BME280;68071;45.062;7.356;2023-04-27T14:08:36;95185.22;;;19.94;39.36
49999;BME280;68071;45.062;7.356;2023-04-27T14:11:40;95179.59;;;19.85;38.80
49999;BME280;68071;45.062;7.356;2023-04-27T14:14:44;95176.31;;;19.68;41.96
49999;BME280;68071;45.062;7.356;2023-04-27T14:17:48;95173.19;;;20.55;39.14
49999;BME280;68071;45.062;7.356;2023-04-27T14:20:53;95177.78;;;20.87;38.06
49999;BME280;68071;45.062;7.356;2023-04-27T14:23:57;95177.81;;;20.77;40.51
49999;BME280;68071;45.062;7.356;2023-04-27T14:27:02;95176.63;;;20.60;36.89
49999;BME280;68071;45.062;7.356;2023-04-27T14:30:06;95176.72;;;20.32;38.57
49999;BME280;68071;45.062;7.356;2023-04-27T14:33:11;95187.38;;;20.09;39.83
49999;BME280;68071;45.062;7.356;2023-04-27T14:36:15;95176.44;;;21.06;36.81
49999;BME280;68071;45.062;7.356;2023-04-27T14:39:20;95181.41;;;21.36;36.79
49999;BME280;68071;45.062;7.356;2023-04-27T14:42:24;95180.81;;;21.46;36.28
49999;BME280;68071;45.062;7.356;2023-04-27T14:45:28;95184.47;;;21.86;34.21
49999;BME280;68071;45.062;7.356;2023-04-27T14:48:32;95176.88;;;21.78;35.52
49999;BME280;68071;45.062;7.356;2023-04-27T14:51:36;95181.66;;;22.31;34.57
49999;BME280;68071;45.062;7.356;2023-04-27T14:54:40;95178.47;;;22.39;36.45
49999;BME280;68071;45.062;7.356;2023-04-27T14:57:44;95173.78;;;22.80;33.95
49999;BME280;68071;45.062;7.356;2023-04-27T15:00:49;95172.50;;;22.81;34.39
49999;BME280;68071;45.062;7.356;2023-04-27T15:03:54;95171.28;;;22.23;33.65
49999;BME280;68071;45.062;7.356;2023-04-27T15:06:59;95172.06;;;22.38;34.63
49999;BME280;68071;45.062;7.356;2023-04-27T15:10:04;95165.75;;;22.13;34.78
49999;BME280;68071;45.062;7.356;2023-04-27T15:13:08;95164.78;;;22.31;34.79
49999;BME280;68071;45.062;7.356;2023-04-27T15:16:12;95165.06;;;22.63;34.05
49999;BME280;68071;45.062;7.356;2023-04-27T15:19:17;95170.88;;;23.10;33.55
49999;BME280;68071;45.062;7.356;2023-04-27T15:22:20;95171.41;;;22.58;35.29
49999;BME280;68071;45.062;7.356;2023-04-27T15:25:26;95157.97;;;22.38;34.50
49999;BME280;68071;45.062;7.356;2023-04-27T15:28:30;95166.56;;;21.11;39.72
49999;BME280;68071;45.062;7.356;2023-04-27T15:31:36;95162.19;;;20.85;35.96
49999;BME280;68071;45.062;7.356;2023-04-27T15:34:40;95165.38;;;20.60;37.25
49999;BME280;68071;45.062;7.356;2023-04-27T15:37:47;95163.06;;;20.58;36.70
49999;BME280;68071;45.062;7.356;2023-04-27T15:40:51;95173.13;;;20.74;37.07
49999;BME280;68071;45.062;7.356;2023-04-27T15:43:55;95167.78;;;21.83;36.10
49999;BME280;68071;45.062;7.356;2023-04-27T15:46:59;95176.88;;;21.78;34.49
49999;BME280;68071;45.062;7.356;2023-04-27T15:50:03;95179.31;;;21.45;34.50
49999;BME280;68071;45.062;7.356;2023-04-27T15:53:08;95172.19;;;20.77;35.09
49999;BME280;68071;45.062;7.356;2023-04-27T15:56:12;95172.25;;;21.26;35.70
49999;BME280;68071;45.062;7.356;2023-04-27T15:59:17;95166.34;;;19.95;37.40
49999;BME280;68071;45.062;7.356;2023-04-27T16:02:20;95159.50;;;19.68;38.04
49999;BME280;68071;45.062;7.356;2023-04-27T16:05:24;95160.47;;;19.46;37.59
49999;BME280;68071;45.062;7.356;2023-04-27T16:08:28;95162.47;;;20.45;38.04
49999;BME280;68071;45.062;7.356;2023-04-27T16:11:34;95162.84;;;21.29;36.95
49999;BME280;68071;45.062;7.356;2023-04-27T16:14:38;95162.25;;;21.88;35.85
49999;BME280;68071;45.062;7.356;2023-04-27T16:17:43;95169.56;;;22.55;36.41
49999;BME280;68071;45.062;7.356;2023-04-27T16:20:47;95169.19;;;22.83;34.52
49999;BME280;68071;45.062;7.356;2023-04-27T16:23:51;95177.69;;;22.68;33.80
49999;BME280;68071;45.062;7.356;2023-04-27T16:26:55;95169.94;;;22.63;35.68
49999;BME280;68071;45.062;7.356;2023-04-27T16:29:59;95175.38;;;23.02;33.24